createdAt,value
2023-01-08T00:00:20.056Z,0.00
2023-01-08T00:01:19.978Z,0.00
2023-01-08T00:02:19.976Z,0.00
2023-01-08T00:03:20.046Z,0.00
2023-01-08T00:04:19.907Z,0.00
2023-01-08T00:05:19.886Z,0.00
2023-01-08T00:06:19.858Z,0.00
2023-01-08T00:07:19.830Z,0.00
2023-01-08T00:08:19.819Z,0.00
2023-01-08T00:09:19.819Z,0.00
2023-01-08T00:10:19.761Z,0.00
2023-01-08T00:11:19.738Z,0.00
2023-01-08T00:12:19.707Z,0.00
2023-01-08T00:13:19.683Z,0.00
2023-01-08T00:14:19.664Z,0.00
2023-01-08T00:15:19.652Z,0.00
2023-01-08T00:16:19.655Z,0.00
2023-01-08T00:17:19.587Z,0.00
2023-01-08T00:18:19.563Z,0.00
2023-01-08T00:19:19.536Z,0.00
2023-01-08T00:20:19.509Z,0.00
2023-01-08T00:21:19.483Z,0.00
2023-01-08T00:22:19.464Z,0.00
2023-01-08T00:23:19.456Z,0.00
2023-01-08T00:24:19.412Z,0.00
2023-01-08T00:25:19.512Z,0.00
2023-01-08T00:26:19.361Z,0.00
2023-01-08T00:27:19.331Z,0.00
2023-01-08T00:28:19.309Z,0.00
2023-01-08T00:29:19.285Z,0.00
2023-01-08T00:30:19.268Z,0.00
2023-01-08T00:31:19.257Z,0.00
2023-01-08T00:32:19.213Z,0.00
2023-01-08T00:33:19.189Z,0.00
2023-01-08T00:34:19.163Z,0.00
2023-01-08T00:35:19.164Z,0.00
2023-01-08T00:36:19.116Z,0.00
2023-01-08T00:37:19.095Z,0.00
2023-01-08T00:38:19.069Z,0.00
2023-01-08T00:39:19.037Z,0.00
2023-01-08T00:40:19.020Z,0.00
2023-01-08T00:41:19.121Z,0.00
2023-01-08T00:42:18.966Z,0.00
2023-01-08T00:43:18.940Z,0.00
2023-01-08T00:44:18.930Z,0.00
2023-01-08T00:45:18.888Z,0.00
2023-01-08T00:46:18.908Z,0.00
2023-01-08T00:47:18.853Z,0.00
2023-01-08T00:48:18.820Z,0.00
2023-01-08T00:49:18.790Z,0.00
2023-01-08T00:50:18.766Z,0.00
2023-01-08T00:51:18.745Z,0.00
2023-01-08T00:52:18.730Z,0.00
2023-01-08T00:53:18.693Z,0.00
2023-01-08T00:54:18.673Z,0.00
2023-01-08T00:55:18.636Z,0.00
2023-01-08T00:56:18.628Z,0.00
2023-01-08T00:57:18.705Z,0.00
2023-01-08T00:58:18.569Z,0.00
2023-01-08T00:59:18.550Z,0.00
2023-01-08T01:00:18.522Z,0.00
2023-01-08T01:01:18.613Z,0.00
2023-01-08T01:02:18.540Z,0.00
2023-01-08T01:03:18.451Z,0.00
2023-01-08T01:04:18.527Z,0.00
2023-01-08T01:05:18.400Z,0.00
2023-01-08T01:06:18.380Z,0.00
2023-01-08T01:07:18.344Z,0.00
2023-01-08T01:08:18.327Z,0.00
2023-01-08T01:09:18.304Z,0.00
2023-01-08T01:10:18.275Z,0.00
2023-01-08T01:11:18.255Z,0.00
2023-01-08T01:12:18.228Z,0.00
2023-01-08T01:13:18.322Z,0.00
2023-01-08T01:14:18.176Z,0.00
2023-01-08T01:15:18.151Z,0.00
2023-01-08T01:16:18.213Z,0.00
2023-01-08T01:17:18.116Z,0.00
2023-01-08T01:18:18.082Z,0.00
2023-01-08T01:19:18.051Z,0.00
2023-01-08T01:20:18.023Z,0.00
2023-01-08T01:21:18.014Z,0.00
2023-01-08T01:22:17.977Z,0.00
2023-01-08T01:23:17.953Z,0.00
2023-01-08T01:24:17.932Z,0.00
2023-01-08T01:25:17.904Z,0.00
2023-01-08T01:26:17.894Z,0.00
2023-01-08T01:27:17.848Z,0.00
2023-01-08T01:28:17.832Z,0.00
2023-01-08T01:29:17.915Z,0.00
2023-01-08T01:30:17.782Z,0.00
2023-01-08T01:31:17.842Z,0.00
2023-01-08T01:32:17.728Z,0.00
2023-01-08T01:33:17.711Z,0.00
2023-01-08T01:34:17.679Z,0.00
2023-01-08T01:35:17.668Z,0.00
2023-01-08T01:36:17.643Z,0.00
2023-01-08T01:37:17.605Z,0.00
2023-01-08T01:38:17.584Z,0.00
2023-01-08T01:39:17.556Z,0.00
2023-01-08T01:40:17.540Z,0.00
2023-01-08T01:41:17.504Z,0.00
2023-01-08T01:42:17.485Z,0.00
2023-01-08T01:43:17.457Z,0.00
2023-01-08T01:44:17.431Z,0.00
2023-01-08T01:45:17.522Z,0.00
2023-01-08T01:46:17.468Z,0.00
2023-01-08T01:47:17.364Z,0.00
2023-01-08T01:48:17.346Z,0.00
2023-01-08T01:49:17.317Z,0.00
2023-01-08T01:50:17.293Z,0.00
2023-01-08T01:51:17.267Z,0.00
2023-01-08T01:52:17.238Z,0.00
2023-01-08T01:53:17.217Z,0.00
2023-01-08T01:54:17.196Z,0.00
2023-01-08T01:55:17.165Z,0.00
2023-01-08T01:56:17.148Z,0.00
2023-01-08T01:57:17.135Z,0.00
2023-01-08T01:58:17.099Z,0.00
2023-01-08T01:59:17.066Z,0.00
2023-01-08T02:00:17.038Z,0.00
2023-01-08T02:01:17.324Z,0.00
2023-01-08T02:02:17.267Z,0.00
2023-01-08T02:03:16.962Z,0.00
2023-01-08T02:04:16.981Z,0.00
2023-01-08T02:05:16.921Z,0.00
2023-01-08T02:06:16.886Z,0.00
2023-01-08T02:07:16.874Z,0.00
2023-01-08T02:08:16.856Z,0.00
2023-01-08T02:09:16.818Z,0.00
2023-01-08T02:10:16.792Z,0.00
2023-01-08T02:11:16.765Z,0.00
2023-01-08T02:12:16.757Z,0.00
2023-01-08T02:13:16.723Z,0.00
2023-01-08T02:14:16.694Z,0.00
2023-01-08T02:15:16.675Z,0.00
2023-01-08T02:16:16.698Z,0.00
2023-01-08T02:17:16.745Z,0.00
2023-01-08T02:18:16.601Z,0.00
2023-01-08T02:19:16.574Z,0.00
2023-01-08T02:20:16.562Z,0.00
2023-01-08T02:21:16.523Z,0.00
2023-01-08T02:22:16.497Z,0.00
2023-01-08T02:23:16.471Z,0.00
2023-01-08T02:24:16.440Z,0.00
2023-01-08T02:25:16.464Z,0.00
2023-01-08T02:26:16.399Z,0.00
2023-01-08T02:27:16.371Z,0.00
2023-01-08T02:28:16.343Z,0.00
2023-01-08T02:29:16.318Z,0.00
2023-01-08T02:30:16.302Z,0.00
2023-01-08T02:31:16.391Z,0.00
2023-01-08T02:32:16.244Z,0.00
2023-01-08T02:33:16.348Z,0.00
2023-01-08T02:34:16.197Z,0.00
2023-01-08T02:35:16.175Z,0.00
2023-01-08T02:36:16.160Z,0.00
2023-01-08T02:37:16.128Z,0.00
2023-01-08T02:38:16.100Z,0.00
2023-01-08T02:39:16.069Z,0.00
2023-01-08T02:40:16.051Z,0.00
2023-01-08T02:41:16.033Z,0.00
2023-01-08T02:42:16.005Z,0.00
2023-01-08T02:43:15.977Z,0.00
2023-01-08T02:44:15.943Z,0.00
2023-01-08T02:45:15.931Z,0.00
2023-01-08T02:46:15.972Z,0.00
2023-01-08T02:47:15.884Z,0.00
2023-01-08T02:48:15.857Z,0.00
2023-01-08T02:49:15.949Z,0.00
2023-01-08T02:50:15.798Z,0.00
2023-01-08T02:51:15.785Z,0.00
2023-01-08T02:52:15.747Z,0.00
2023-01-08T02:53:15.737Z,0.00
2023-01-08T02:54:15.702Z,0.00
2023-01-08T02:55:15.679Z,0.00
2023-01-08T02:56:15.653Z,0.00
2023-01-08T02:57:15.634Z,0.00
2023-01-08T02:58:15.603Z,0.00
2023-01-08T02:59:15.583Z,0.00
2023-01-08T03:00:15.553Z,0.00
2023-01-08T03:01:15.712Z,0.00
2023-01-08T03:02:15.645Z,0.00
2023-01-08T03:03:15.486Z,0.00
2023-01-08T03:04:15.522Z,0.00
2023-01-08T03:05:15.551Z,0.00
2023-01-08T03:06:15.420Z,0.00
2023-01-08T03:07:15.385Z,0.00
2023-01-08T03:08:15.368Z,0.00
2023-01-08T03:09:15.330Z,0.00
2023-01-08T03:10:15.303Z,0.00
2023-01-08T03:11:15.280Z,0.00
2023-01-08T03:12:15.250Z,0.00
2023-01-08T03:13:15.244Z,0.00
2023-01-08T03:14:15.203Z,0.00
2023-01-08T03:15:15.185Z,0.00
2023-01-08T03:16:15.238Z,0.00
2023-01-08T03:17:15.130Z,0.00
2023-01-08T03:18:15.105Z,0.00
2023-01-08T03:19:15.504Z,0.00
2023-01-08T03:20:15.052Z,0.00
2023-01-08T03:21:15.151Z,0.00
2023-01-08T03:22:15.007Z,0.00
2023-01-08T03:23:14.983Z,0.00
2023-01-08T03:24:14.963Z,0.00
2023-01-08T03:25:14.932Z,0.00
2023-01-08T03:26:14.912Z,0.00
2023-01-08T03:27:14.883Z,0.00
2023-01-08T03:28:14.863Z,0.00
2023-01-08T03:29:14.841Z,0.00
2023-01-08T03:30:14.812Z,0.00
2023-01-08T03:31:14.858Z,0.00
2023-01-08T03:32:14.761Z,0.00
2023-01-08T03:33:14.741Z,0.00
2023-01-08T03:34:14.718Z,0.00
2023-01-08T03:35:14.696Z,0.00
2023-01-08T03:36:14.666Z,0.00
2023-01-08T03:37:14.764Z,0.00
2023-01-08T03:38:14.622Z,0.00
2023-01-08T03:39:14.607Z,0.00
2023-01-08T03:40:14.562Z,0.00
2023-01-08T03:41:14.552Z,0.00
2023-01-08T03:42:14.515Z,0.00
2023-01-08T03:43:14.504Z,0.00
2023-01-08T03:44:14.464Z,0.00
2023-01-08T03:45:14.442Z,0.00
2023-01-08T03:46:14.461Z,0.00
2023-01-08T03:47:14.394Z,0.00
2023-01-08T03:48:14.375Z,0.00
2023-01-08T03:49:14.343Z,0.00
2023-01-08T03:50:14.320Z,0.00
2023-01-08T03:51:14.309Z,0.00
2023-01-08T03:52:14.265Z,0.00
2023-01-08T03:53:14.363Z,0.00
2023-01-08T03:54:14.218Z,0.00
2023-01-08T03:55:14.192Z,0.00
2023-01-08T03:56:14.172Z,0.00
2023-01-08T03:57:14.151Z,0.00
2023-01-08T03:58:14.146Z,0.00
2023-01-08T03:59:14.101Z,0.00
2023-01-08T04:00:14.077Z,0.00
2023-01-08T04:01:14.210Z,0.00
2023-01-08T04:02:14.164Z,0.00
2023-01-08T04:03:13.999Z,0.00
2023-01-08T04:04:14.076Z,0.00
2023-01-08T04:05:13.949Z,0.00
2023-01-08T04:06:13.921Z,0.00
2023-01-08T04:07:13.909Z,0.00
2023-01-08T04:08:13.869Z,0.00
2023-01-08T04:09:13.987Z,0.00
2023-01-08T04:10:13.819Z,0.00
2023-01-08T04:11:13.806Z,0.00
2023-01-08T04:12:13.778Z,0.00
2023-01-08T04:13:13.755Z,0.00
2023-01-08T04:14:13.718Z,0.00
2023-01-08T04:15:13.704Z,0.00
2023-01-08T04:16:13.708Z,0.00
2023-01-08T04:17:13.647Z,0.00
2023-01-08T04:18:13.624Z,0.00
2023-01-08T04:19:13.605Z,0.00
2023-01-08T04:20:13.612Z,0.00
2023-01-08T04:21:13.562Z,0.00
2023-01-08T04:22:13.532Z,0.00
2023-01-08T04:23:13.514Z,0.00
2023-01-08T04:24:13.483Z,0.00
2023-01-08T04:25:13.576Z,0.00
2023-01-08T04:26:13.424Z,0.00
2023-01-08T04:27:13.400Z,0.00
2023-01-08T04:28:13.389Z,0.00
2023-01-08T04:29:13.349Z,0.00
2023-01-08T04:30:13.334Z,0.00
2023-01-08T04:31:13.393Z,0.00
2023-01-08T04:32:13.289Z,0.00
2023-01-08T04:33:13.256Z,0.00
2023-01-08T04:34:13.236Z,0.00
2023-01-08T04:35:13.207Z,0.00
2023-01-08T04:36:13.182Z,0.00
2023-01-08T04:37:13.157Z,0.00
2023-01-08T04:38:13.128Z,0.00
2023-01-08T04:39:13.108Z,0.00
2023-01-08T04:40:13.079Z,4.00
2023-01-08T04:41:13.180Z,4.00
2023-01-08T04:42:13.031Z,4.00
2023-01-08T04:43:13.019Z,0.00
2023-01-08T04:44:12.979Z,0.00
2023-01-08T04:45:12.957Z,0.00
2023-01-08T04:46:12.968Z,4.00
2023-01-08T04:47:12.908Z,0.00
2023-01-08T04:48:12.883Z,0.00
2023-01-08T04:49:12.855Z,0.00
2023-01-08T04:50:12.830Z,0.00
2023-01-08T04:51:12.816Z,0.00
2023-01-08T04:52:12.784Z,0.00
2023-01-08T04:53:12.764Z,0.00
2023-01-08T04:54:12.730Z,0.00
2023-01-08T04:55:12.710Z,4.00
2023-01-08T04:56:12.686Z,4.00
2023-01-08T04:57:12.773Z,4.00
2023-01-08T04:58:12.633Z,4.00
2023-01-08T04:59:12.616Z,4.00
2023-01-08T05:00:12.584Z,4.00
2023-01-08T05:01:12.700Z,4.00
2023-01-08T05:02:12.868Z,0.00
2023-01-08T05:03:12.554Z,0.00
2023-01-08T05:04:12.487Z,0.00
2023-01-08T05:05:12.465Z,0.00
2023-01-08T05:06:12.438Z,0.00
2023-01-08T05:07:12.411Z,0.00
2023-01-08T05:08:12.389Z,0.00
2023-01-08T05:09:12.366Z,0.00
2023-01-08T05:10:12.336Z,0.00
2023-01-08T05:11:12.313Z,0.00
2023-01-08T05:12:12.291Z,0.00
2023-01-08T05:13:12.408Z,0.00
2023-01-08T05:14:12.239Z,0.00
2023-01-08T05:15:12.223Z,0.00
2023-01-08T05:16:12.262Z,0.00
2023-01-08T05:17:12.175Z,0.00
2023-01-08T05:18:12.137Z,0.00
2023-01-08T05:19:12.115Z,0.00
2023-01-08T05:20:12.091Z,0.00
2023-01-08T05:21:12.073Z,0.00
2023-01-08T05:22:12.065Z,0.00
2023-01-08T05:23:12.023Z,0.00
2023-01-08T05:24:12.023Z,0.00
2023-01-08T05:25:11.977Z,0.00
2023-01-08T05:26:11.946Z,0.00
2023-01-08T05:27:11.919Z,0.00
2023-01-08T05:28:11.892Z,0.00
2023-01-08T05:29:11.983Z,0.00
2023-01-08T05:30:11.841Z,0.00
2023-01-08T05:31:11.986Z,0.00
2023-01-08T05:32:11.790Z,0.00
2023-01-08T05:33:11.773Z,0.00
2023-01-08T05:34:11.745Z,0.00
2023-01-08T05:35:11.724Z,0.00
2023-01-08T05:36:11.701Z,0.00
2023-01-08T05:37:11.674Z,0.00
2023-01-08T05:38:11.639Z,0.00
2023-01-08T05:39:11.616Z,0.00
2023-01-08T05:40:11.596Z,0.00
2023-01-08T05:41:11.568Z,0.00
2023-01-08T05:42:11.540Z,0.00
2023-01-08T05:43:11.529Z,0.00
2023-01-08T05:44:11.495Z,0.00
2023-01-08T05:45:11.592Z,0.00
2023-01-08T05:46:11.563Z,0.00
2023-01-08T05:47:11.425Z,0.00
2023-01-08T05:48:11.392Z,0.00
2023-01-08T05:49:11.374Z,0.00
2023-01-08T05:50:11.345Z,0.00
2023-01-08T05:51:11.331Z,0.00
2023-01-08T05:52:11.293Z,0.00
2023-01-08T05:53:11.273Z,0.00
2023-01-08T05:54:11.252Z,0.00
2023-01-08T05:55:11.221Z,0.00
2023-01-08T05:56:11.198Z,0.00
2023-01-08T05:57:11.176Z,0.00
2023-01-08T05:58:11.162Z,0.00
2023-01-08T05:59:11.121Z,0.00
2023-01-08T06:00:11.100Z,0.00
2023-01-08T06:01:11.294Z,0.00
2023-01-08T06:02:11.055Z,0.00
2023-01-08T06:03:11.087Z,0.00
2023-01-08T06:04:11.077Z,0.00
2023-01-08T06:05:10.973Z,0.00
2023-01-08T06:06:10.949Z,0.00
2023-01-08T06:07:10.931Z,0.00
2023-01-08T06:08:10.908Z,0.00
2023-01-08T06:09:10.898Z,0.00
2023-01-08T06:10:10.852Z,0.00
2023-01-08T06:11:10.823Z,0.00
2023-01-08T06:12:10.802Z,0.00
2023-01-08T06:13:10.773Z,0.00
2023-01-08T06:14:10.756Z,0.00
2023-01-08T06:15:10.724Z,0.00
2023-01-08T06:16:10.763Z,0.00
2023-01-08T06:17:10.800Z,0.00
2023-01-08T06:18:10.653Z,0.00
2023-01-08T06:19:10.628Z,0.00
2023-01-08T06:20:10.606Z,0.00
2023-01-08T06:21:10.575Z,0.00
2023-01-08T06:22:10.551Z,0.00
2023-01-08T06:23:10.532Z,0.00
2023-01-08T06:24:10.509Z,0.00
2023-01-08T06:25:10.475Z,0.00
2023-01-08T06:26:10.460Z,0.00
2023-01-08T06:27:10.426Z,0.00
2023-01-08T06:28:10.402Z,0.00
2023-01-08T06:29:10.381Z,0.00
2023-01-08T06:30:10.356Z,0.00
2023-01-08T06:31:10.393Z,0.00
2023-01-08T06:32:10.305Z,0.00
2023-01-08T06:33:10.463Z,0.00
2023-01-08T06:34:10.261Z,0.00
2023-01-08T06:35:10.235Z,0.00
2023-01-08T06:36:10.203Z,0.00
2023-01-08T06:37:10.174Z,0.00
2023-01-08T06:38:10.151Z,0.00
2023-01-08T06:39:10.134Z,0.00
2023-01-08T06:40:10.103Z,0.00
2023-01-08T06:41:10.077Z,0.00
2023-01-08T06:42:10.062Z,0.00
2023-01-08T06:43:10.026Z,0.00
2023-01-08T06:44:10.012Z,0.00
2023-01-08T06:45:09.976Z,0.00
2023-01-08T06:46:10.035Z,0.00
2023-01-08T06:47:09.925Z,0.00
2023-01-08T06:48:09.924Z,0.00
2023-01-08T06:49:10.012Z,0.00
2023-01-08T06:50:09.863Z,0.00
2023-01-08T06:51:09.827Z,0.00
2023-01-08T06:52:09.805Z,0.00
2023-01-08T06:53:09.778Z,0.00
2023-01-08T06:54:10.727Z,0.00
2023-01-08T06:55:09.723Z,0.00
2023-01-08T06:56:09.717Z,0.00
2023-01-08T06:57:09.678Z,0.00
2023-01-08T06:58:09.668Z,0.00
2023-01-08T06:59:09.627Z,0.00
2023-01-08T07:00:09.605Z,0.00
2023-01-08T07:01:09.612Z,0.00
2023-01-08T07:02:09.698Z,0.00
2023-01-08T07:03:09.606Z,0.00
2023-01-08T07:04:09.520Z,0.00
2023-01-08T07:05:09.606Z,0.00
2023-01-08T07:06:09.463Z,0.00
2023-01-08T07:07:09.437Z,0.00
2023-01-08T07:08:09.409Z,0.00
2023-01-08T07:09:09.386Z,0.00
2023-01-08T07:10:09.359Z,0.00
2023-01-08T07:11:09.332Z,0.00
2023-01-08T07:12:09.311Z,0.00
2023-01-08T07:13:09.284Z,0.00
2023-01-08T07:14:09.291Z,0.00
2023-01-08T07:15:09.231Z,0.00
2023-01-08T07:16:09.431Z,0.00
2023-01-08T07:17:09.187Z,0.00
2023-01-08T07:18:09.160Z,0.00
2023-01-08T07:19:09.247Z,0.00
2023-01-08T07:20:09.115Z,0.00
2023-01-08T07:21:09.228Z,0.00
2023-01-08T07:22:09.058Z,0.00
2023-01-08T07:23:09.033Z,0.00
2023-01-08T07:24:09.014Z,0.00
2023-01-08T07:25:08.984Z,4.00
2023-01-08T07:26:08.960Z,4.00
2023-01-08T07:27:08.935Z,4.00
2023-01-08T07:28:08.912Z,4.00
2023-01-08T07:29:08.908Z,0.00
2023-01-08T07:30:18.019Z,0.00
2023-01-08T07:31:08.899Z,0.00
2023-01-08T07:32:08.815Z,0.00
2023-01-08T07:33:08.782Z,0.00
2023-01-08T07:34:08.765Z,4.00
2023-01-08T07:35:08.737Z,4.00
2023-01-08T07:36:08.732Z,4.00
2023-01-08T07:37:08.802Z,4.00
2023-01-08T07:38:08.664Z,4.00
2023-01-08T07:39:08.630Z,4.00
2023-01-08T07:40:08.612Z,4.00
2023-01-08T07:41:08.575Z,4.00
2023-01-08T07:42:08.562Z,4.00
2023-01-08T07:43:08.529Z,0.00
2023-01-08T07:44:08.515Z,4.00
2023-01-08T07:45:08.477Z,4.00
2023-01-08T07:46:08.486Z,0.00
2023-01-08T07:47:08.427Z,4.00
2023-01-08T07:48:08.409Z,4.00
2023-01-08T07:49:08.381Z,8.00
2023-01-08T07:50:08.359Z,4.00
2023-01-08T07:51:08.338Z,4.00
2023-01-08T07:52:08.304Z,4.00
2023-01-08T07:53:08.396Z,4.00
2023-01-08T07:54:08.253Z,8.00
2023-01-08T07:55:08.230Z,8.00
2023-01-08T07:56:08.216Z,8.00
2023-01-08T07:57:08.176Z,12.00
2023-01-08T07:58:08.153Z,8.00
2023-01-08T07:59:08.120Z,12.00
2023-01-08T08:00:08.103Z,12.00
2023-01-08T08:01:08.107Z,12.00
2023-01-08T08:02:08.186Z,12.00
2023-01-08T08:03:08.079Z,12.00
2023-01-08T08:04:08.012Z,12.00
2023-01-08T08:05:07.968Z,12.00
2023-01-08T08:06:07.966Z,16.00
2023-01-08T08:07:07.931Z,16.00
2023-01-08T08:08:07.900Z,20.00
2023-01-08T08:09:07.995Z,20.00
2023-01-08T08:10:07.839Z,20.00
2023-01-08T08:11:07.821Z,24.00
2023-01-08T08:12:07.804Z,32.00
2023-01-08T08:13:07.779Z,40.00
2023-01-08T08:14:07.747Z,48.00
2023-01-08T08:15:07.720Z,52.00
2023-01-08T08:16:07.727Z,56.00
2023-01-08T08:17:07.665Z,64.00
2023-01-08T08:18:07.643Z,64.00
2023-01-08T08:19:07.616Z,68.00
2023-01-08T08:20:07.617Z,68.00
2023-01-08T08:21:07.574Z,64.00
2023-01-08T08:22:07.556Z,64.00
2023-01-08T08:23:07.515Z,60.00
2023-01-08T08:24:07.497Z,60.00
2023-01-08T08:25:07.596Z,60.00
2023-01-08T08:26:07.444Z,64.00
2023-01-08T08:27:07.415Z,64.00
2023-01-08T08:28:07.392Z,68.00
2023-01-08T08:29:07.367Z,64.00
2023-01-08T08:30:07.339Z,64.00
2023-01-08T08:31:07.319Z,64.00
2023-01-08T08:32:07.309Z,64.00
2023-01-08T08:33:07.266Z,60.00
2023-01-08T08:34:07.245Z,60.00
2023-01-08T08:35:07.215Z,56.00
2023-01-08T08:36:07.200Z,56.00
2023-01-08T08:37:07.168Z,60.00
2023-01-08T08:38:07.148Z,56.00
2023-01-08T08:39:07.117Z,56.00
2023-01-08T08:40:07.099Z,60.00
2023-01-08T08:41:07.177Z,64.00
2023-01-08T08:42:07.037Z,60.00
2023-01-08T08:43:07.010Z,64.00
2023-01-08T08:44:06.986Z,60.00
2023-01-08T08:45:06.961Z,56.00
2023-01-08T08:46:06.940Z,52.00
2023-01-08T08:47:06.920Z,48.00
2023-01-08T08:48:06.893Z,48.00
2023-01-08T08:49:06.863Z,48.00
2023-01-08T08:50:06.837Z,52.00
2023-01-08T08:51:06.817Z,48.00
2023-01-08T08:52:06.802Z,52.00
2023-01-08T08:53:06.832Z,60.00
2023-01-08T08:54:06.738Z,76.00
2023-01-08T08:55:06.710Z,92.00
2023-01-08T08:56:06.697Z,104.00
2023-01-08T08:57:06.777Z,108.00
2023-01-08T08:58:06.640Z,120.00
2023-01-08T08:59:06.609Z,124.00
2023-01-08T09:00:06.582Z,120.00
2023-01-08T09:01:06.557Z,116.00
2023-01-08T09:02:06.722Z,116.00
2023-01-08T09:03:06.620Z,116.00
2023-01-08T09:04:06.482Z,116.00
2023-01-08T09:05:06.460Z,136.00
2023-01-08T09:06:06.434Z,120.00
2023-01-08T09:07:06.409Z,96.00
2023-01-08T09:08:06.380Z,96.00
2023-01-08T09:09:06.350Z,104.00
2023-01-08T09:10:06.336Z,96.00
2023-01-08T09:11:06.300Z,100.00
2023-01-08T09:12:06.287Z,108.00
2023-01-08T09:13:06.378Z,116.00
2023-01-08T09:14:06.230Z,120.00
2023-01-08T09:15:06.206Z,112.00
2023-01-08T09:16:06.255Z,112.00
2023-01-08T09:17:06.149Z,108.00
2023-01-08T09:18:06.159Z,116.00
2023-01-08T09:19:06.099Z,152.00
2023-01-08T09:20:06.082Z,160.00
2023-01-08T09:21:06.073Z,164.00
2023-01-08T09:22:06.029Z,164.00
2023-01-08T09:23:05.996Z,164.00
2023-01-08T09:24:05.975Z,168.00
2023-01-08T09:25:05.946Z,168.00
2023-01-08T09:26:05.933Z,168.00
2023-01-08T09:27:05.907Z,160.00
2023-01-08T09:28:05.934Z,160.00
2023-01-08T09:29:05.989Z,164.00
2023-01-08T09:30:05.834Z,172.00
2023-01-08T09:31:05.848Z,168.00
2023-01-08T09:32:05.788Z,172.00
2023-01-08T09:33:05.743Z,172.00
2023-01-08T09:34:05.719Z,176.00
2023-01-08T09:35:05.703Z,172.00
2023-01-08T09:36:05.679Z,180.00
2023-01-08T09:37:05.646Z,176.00
2023-01-08T09:38:05.619Z,184.00
2023-01-08T09:39:05.591Z,180.00
2023-01-08T09:40:05.575Z,180.00
2023-01-08T09:41:05.547Z,184.00
2023-01-08T09:42:05.517Z,184.00
2023-01-08T09:43:05.504Z,188.00
2023-01-08T09:44:05.478Z,188.00
2023-01-08T09:45:05.557Z,192.00
2023-01-08T09:46:05.451Z,196.00
2023-01-08T09:47:05.538Z,192.00
2023-01-08T09:48:05.368Z,192.00
2023-01-08T09:49:05.336Z,196.00
2023-01-08T09:50:05.319Z,200.00
2023-01-08T09:51:05.296Z,200.00
2023-01-08T09:52:05.278Z,200.00
2023-01-08T09:53:05.243Z,200.00
2023-01-08T09:54:05.215Z,204.00
2023-01-08T09:55:05.186Z,208.00
2023-01-08T09:56:10.174Z,208.00
2023-01-08T09:57:05.141Z,212.00
2023-01-08T09:58:05.114Z,216.00
2023-01-08T09:59:05.109Z,216.00
2023-01-08T10:00:05.072Z,220.00
2023-01-08T10:01:05.275Z,224.00
2023-01-08T10:02:05.205Z,224.00
2023-01-08T10:03:05.049Z,228.00
2023-01-08T10:04:04.968Z,232.00
2023-01-08T10:05:04.931Z,236.00
2023-01-08T10:06:04.913Z,236.00
2023-01-08T10:07:04.887Z,232.00
2023-01-08T10:08:04.863Z,236.00
2023-01-08T10:09:07.566Z,236.00
2023-01-08T10:10:04.810Z,240.00
2023-01-08T10:11:04.783Z,244.00
2023-01-08T10:12:04.761Z,244.00
2023-01-08T10:13:04.748Z,248.00
2023-01-08T10:14:04.709Z,248.00
2023-01-08T10:15:04.682Z,252.00
2023-01-08T10:16:04.734Z,252.00
2023-01-08T10:17:04.959Z,260.00
2023-01-08T10:18:04.604Z,256.00
2023-01-08T10:19:04.584Z,264.00
2023-01-08T10:20:04.564Z,260.00
2023-01-08T10:21:04.558Z,268.00
2023-01-08T10:22:04.502Z,272.00
2023-01-08T10:23:04.488Z,272.00
2023-01-08T10:24:04.511Z,276.00
2023-01-08T10:25:04.435Z,284.00
2023-01-08T10:26:04.408Z,284.00
2023-01-08T10:27:04.407Z,292.00
2023-01-08T10:28:04.350Z,292.00
2023-01-08T10:29:04.333Z,296.00
2023-01-08T10:30:04.301Z,296.00
2023-01-08T10:31:04.342Z,304.00
2023-01-08T10:32:04.251Z,308.00
2023-01-08T10:33:04.250Z,308.00
2023-01-08T10:34:04.201Z,308.00
2023-01-08T10:35:04.172Z,312.00
2023-01-08T10:36:04.163Z,316.00
2023-01-08T10:37:04.124Z,320.00
2023-01-08T10:38:04.104Z,320.00
2023-01-08T10:39:04.076Z,324.00
2023-01-08T10:40:04.047Z,324.00
2023-01-08T10:41:04.024Z,328.00
2023-01-08T10:42:03.995Z,332.00
2023-01-08T10:43:03.980Z,336.00
2023-01-08T10:44:03.953Z,336.00
2023-01-08T10:45:06.848Z,344.00
2023-01-08T10:46:03.953Z,344.00
2023-01-08T10:47:03.873Z,352.00
2023-01-08T10:48:03.846Z,356.00
2023-01-08T10:49:03.943Z,360.00
2023-01-08T10:50:03.802Z,364.00
2023-01-08T10:51:05.096Z,368.00
2023-01-08T10:52:03.756Z,372.00
2023-01-08T10:53:03.725Z,376.00
2023-01-08T10:54:03.694Z,376.00
2023-01-08T10:55:03.672Z,372.00
2023-01-08T10:56:03.652Z,364.00
2023-01-08T10:57:03.623Z,360.00
2023-01-08T10:58:03.594Z,360.00
2023-01-08T10:59:03.573Z,364.00
2023-01-08T11:00:03.546Z,364.00
2023-01-08T11:01:03.622Z,368.00
2023-01-08T11:02:03.607Z,372.00
2023-01-08T11:03:03.472Z,368.00
2023-01-08T11:04:03.448Z,368.00
2023-01-08T11:05:03.442Z,376.00
2023-01-08T11:06:03.393Z,380.00
2023-01-08T11:07:03.382Z,384.00
2023-01-08T11:08:03.341Z,384.00
2023-01-08T11:09:03.321Z,344.00
2023-01-08T11:10:03.295Z,404.00
2023-01-08T11:11:03.271Z,420.00
2023-01-08T11:12:03.240Z,436.00
2023-01-08T11:13:03.226Z,452.00
2023-01-08T11:14:03.199Z,452.00
2023-01-08T11:15:03.179Z,456.00
2023-01-08T11:16:03.199Z,468.00
2023-01-08T11:17:03.124Z,468.00
2023-01-08T11:18:03.088Z,456.00
2023-01-08T11:19:03.071Z,448.00
2023-01-08T11:20:03.040Z,436.00
2023-01-08T11:21:03.050Z,424.00
2023-01-08T11:22:02.997Z,416.00
2023-01-08T11:23:02.974Z,412.00
2023-01-08T11:24:02.956Z,408.00
2023-01-08T11:25:02.919Z,412.00
2023-01-08T11:26:02.900Z,404.00
2023-01-08T11:27:02.879Z,404.00
2023-01-08T11:28:02.845Z,408.00
2023-01-08T11:29:02.824Z,404.00
2023-01-08T11:30:02.802Z,408.00
2023-01-08T11:31:02.783Z,404.00
2023-01-08T11:32:02.746Z,408.00
2023-01-08T11:33:02.727Z,408.00
2023-01-08T11:34:02.692Z,412.00
2023-01-08T11:35:02.675Z,408.00
2023-01-08T11:36:02.647Z,412.00
2023-01-08T11:37:02.649Z,416.00
2023-01-08T11:38:02.594Z,416.00
2023-01-08T11:39:02.580Z,416.00
2023-01-08T11:40:02.557Z,416.00
2023-01-08T11:41:02.525Z,420.00
2023-01-08T11:42:02.502Z,420.00
2023-01-08T11:43:02.477Z,424.00
2023-01-08T11:44:02.451Z,424.00
2023-01-08T11:45:02.426Z,424.00
2023-01-08T11:46:02.471Z,424.00
2023-01-08T11:47:02.382Z,420.00
2023-01-08T11:48:02.354Z,424.00
2023-01-08T11:49:02.331Z,420.00
2023-01-08T11:50:02.306Z,424.00
2023-01-08T11:51:02.281Z,424.00
2023-01-08T11:52:02.254Z,420.00
2023-01-08T11:53:02.378Z,424.00
2023-01-08T11:54:02.202Z,424.00
2023-01-08T11:55:02.177Z,424.00
2023-01-08T11:56:02.150Z,424.00
2023-01-08T11:57:02.131Z,428.00
2023-01-08T11:58:02.105Z,432.00
2023-01-08T11:59:02.088Z,396.00
2023-01-08T12:00:02.058Z,240.00
2023-01-08T12:01:02.030Z,212.00
2023-01-08T12:02:02.155Z,212.00
2023-01-08T12:03:02.096Z,236.00
2023-01-08T12:04:01.955Z,260.00
2023-01-08T12:05:01.933Z,252.00
2023-01-08T12:06:01.906Z,248.00
2023-01-08T12:07:01.879Z,252.00
2023-01-08T12:08:01.860Z,248.00
2023-01-08T12:09:01.858Z,268.00
2023-01-08T12:10:01.816Z,296.00
2023-01-08T12:11:01.782Z,304.00
2023-01-08T12:12:01.759Z,296.00
2023-01-08T12:13:01.735Z,292.00
2023-01-08T12:14:01.703Z,276.00
2023-01-08T12:15:01.707Z,252.00
2023-01-08T12:16:01.696Z,236.00
2023-01-08T12:17:01.652Z,224.00
2023-01-08T12:18:01.648Z,220.00
2023-01-08T12:19:01.590Z,220.00
2023-01-08T12:20:01.563Z,224.00
2023-01-08T12:21:01.539Z,228.00
2023-01-08T12:22:01.510Z,232.00
2023-01-08T12:23:01.493Z,252.00
2023-01-08T12:24:01.464Z,276.00
2023-01-08T12:25:01.463Z,284.00
2023-01-08T12:26:01.413Z,272.00
2023-01-08T12:27:01.398Z,268.00
2023-01-08T12:28:01.374Z,248.00
2023-01-08T12:29:01.349Z,228.00
2023-01-08T12:30:01.309Z,204.00
2023-01-08T12:31:01.289Z,188.00
2023-01-08T12:32:04.251Z,204.00
2023-01-08T12:33:01.245Z,268.00
2023-01-08T12:34:01.210Z,232.00
2023-01-08T12:35:01.195Z,272.00
2023-01-08T12:36:01.168Z,320.00
2023-01-08T12:37:01.143Z,340.00
2023-01-08T12:38:01.117Z,292.00
2023-01-08T12:39:01.093Z,236.00
2023-01-08T12:40:01.088Z,208.00
2023-01-08T12:41:01.063Z,204.00
2023-01-08T12:42:01.018Z,204.00
2023-01-08T12:43:02.563Z,184.00
2023-01-08T12:44:00.966Z,168.00
2023-01-08T12:45:00.945Z,156.00
2023-01-08T12:46:00.991Z,128.00
2023-01-08T12:47:00.901Z,112.00
2023-01-08T12:48:00.879Z,108.00
2023-01-08T12:49:00.847Z,108.00
2023-01-08T12:50:00.828Z,104.00
2023-01-08T12:51:00.796Z,100.00
2023-01-08T12:52:00.792Z,92.00
2023-01-08T12:53:00.758Z,88.00
2023-01-08T12:54:00.734Z,88.00
2023-01-08T12:55:00.700Z,88.00
2023-01-08T12:56:00.677Z,92.00
2023-01-08T12:57:00.679Z,100.00
2023-01-08T12:58:00.632Z,104.00
2023-01-08T12:59:00.602Z,100.00
2023-01-08T13:00:00.575Z,84.00